Time;durP1;ratioP1;P1;durP2;ratioP2;P2;SDS_P1;SDS_P2;PMS_P1;PMS_P2;Temp;Humidity;BMP_temperature;BMP_pressure;BME280_temperature;BME280_humidity;BME280_pressure;Samples;Min_cycle;Max_cycle;Signal;HPM_P1;HPM_P2
2024/03/11 00:00:19;;;;;;;2.80;2.00;;;;;;;;;;4899250;29;20024;-81
2024/03/11 00:03:08;;;;;;;2.30;1.92;;;;;;;;;;4898360;29;20035;-81
2024/03/11 00:05:53;;;;;;;2.00;1.50;;;;;;;;;;4931061;29;20015;-80
2024/03/11 00:08:40;;;;;;;3.60;1.70;;;;;;;;;;4914139;29;20054;-82
2024/03/11 00:11:27;;;;;;;1.63;1.42;;;;;;;;;;4897657;29;20032;-81
2024/03/11 00:14:14;;;;;;;4.93;1.70;;;;;;;;;;4924629;29;20039;-82
2024/03/11 00:16:59;;;;;;;2.53;1.67;;;;;;;;;;4929705;29;20047;-81
2024/03/11 00:19:44;;;;;;;2.58;1.80;;;;;;;;;;4919374;29;20028;-81
2024/03/11 00:22:30;;;;;;;3.15;1.75;;;;;;;;;;4910348;29;20016;-82
2024/03/11 00:25:16;;;;;;;2.50;1.60;;;;;;;;;;4912166;29;20024;-80
2024/03/11 00:28:01;;;;;;;2.03;1.70;;;;;;;;;;4906458;29;20047;-80
2024/03/11 00:30:46;;;;;;;2.72;1.98;;;;;;;;;;4903459;29;20032;-80
2024/03/11 00:33:32;;;;;;;3.08;1.85;;;;;;;;;;4900759;29;20051;-81
2024/03/11 00:36:17;;;;;;;5.22;1.90;;;;;;;;;;4898014;29;20028;-82
2024/03/11 00:39:03;;;;;;;2.63;1.70;;;;;;;;;;4899206;29;20039;-83
2024/03/11 00:41:48;;;;;;;2.53;1.70;;;;;;;;;;4898405;29;20056;-80
2024/03/11 00:44:33;;;;;;;2.10;1.50;;;;;;;;;;4911935;29;20031;-80
2024/03/11 00:47:19;;;;;;;3.17;2.13;;;;;;;;;;4898439;29;20040;-81
2024/03/11 00:50:06;;;;;;;1.80;1.60;;;;;;;;;;4898017;29;20024;-82
2024/03/11 00:52:51;;;;;;;3.65;1.63;;;;;;;;;;4880040;29;20028;-81
2024/03/11 00:55:38;;;;;;;2.65;2.17;;;;;;;;;;4897998;29;20035;-82
2024/03/11 00:58:24;;;;;;;3.15;2.15;;;;;;;;;;4899019;29;20037;-83
2024/03/11 01:01:13;;;;;;;4.55;2.22;;;;;;;;;;4912559;29;20481;-82
2024/03/11 01:03:58;;;;;;;2.88;1.40;;;;;;;;;;4898261;29;20043;-81
2024/03/11 01:06:44;;;;;;;2.70;1.70;;;;;;;;;;4910575;29;20067;-82
2024/03/11 01:09:29;;;;;;;2.17;1.60;;;;;;;;;;4898354;29;20534;-82
2024/03/11 01:12:17;;;;;;;2.17;1.60;;;;;;;;;;4897893;29;20094;-82
2024/03/11 01:15:03;;;;;;;2.58;1.42;;;;;;;;;;4897931;29;20036;-81
2024/03/11 01:17:49;;;;;;;2.70;1.98;;;;;;;;;;4897750;29;20503;-80
2024/03/11 01:20:37;;;;;;;3.13;2.00;;;;;;;;;;4896327;29;20035;-82
2024/03/11 01:23:22;;;;;;;2.65;1.98;;;;;;;;;;4900207;29;20559;-82
2024/03/11 01:26:07;;;;;;;2.58;1.90;;;;;;;;;;4900171;29;20055;-82
2024/03/11 01:28:53;;;;;;;3.47;1.85;;;;;;;;;;4897125;29;20043;-81
2024/03/11 01:31:38;;;;;;;11.38;1.95;;;;;;;;;;4897792;29;20484;-79
2024/03/11 01:34:23;;;;;;;1.15;1.05;;;;;;;;;;4897582;29;20424;-80
2024/03/11 01:37:08;;;;;;;2.22;1.55;;;;;;;;;;4895899;29;20035;-80
2024/03/11 01:39:54;;;;;;;2.35;1.40;;;;;;;;;;4897162;29;20028;-80
2024/03/11 01:42:42;;;;;;;2.20;1.58;;;;;;;;;;4897408;29;20128;-81
2024/03/11 01:45:27;;;;;;;1.50;1.40;;;;;;;;;;4884324;29;20028;-82
2024/03/11 01:48:13;;;;;;;2.45;1.40;;;;;;;;;;4897081;29;20059;-83
2024/03/11 01:50:58;;;;;;;2.03;1.20;;;;;;;;;;4897146;29;20036;-81
2024/03/11 01:53:45;;;;;;;1.58;1.40;;;;;;;;;;4897259;29;20080;-83
2024/03/11 01:56:31;;;;;;;1.83;1.60;;;;;;;;;;4896547;29;20088;-83
2024/03/11 01:59:17;;;;;;;1.85;1.35;;;;;;;;;;4890590;29;20031;-82
2024/03/11 02:02:12;;;;;;;2.67;1.52;;;;;;;;;;4892547;29;20028;-82
2024/03/11 02:04:57;;;;;;;2.85;1.55;;;;;;;;;;4909068;29;20502;-82
2024/03/11 02:07:43;;;;;;;1.48;1.10;;;;;;;;;;4896482;29;20547;-82
2024/03/11 02:10:28;;;;;;;3.90;1.33;;;;;;;;;;4893796;29;20031;-82
2024/03/11 02:13:14;;;;;;;2.58;1.60;;;;;;;;;;4896426;29;20024;-82
2024/03/11 02:15:59;;;;;;;3.15;1.52;;;;;;;;;;4896820;29;20032;-82
2024/03/11 02:18:45;;;;;;;2.13;1.30;;;;;;;;;;4897163;29;20040;-82
2024/03/11 02:21:31;;;;;;;3.95;1.38;;;;;;;;;;4910624;29;20028;-82
2024/03/11 02:24:17;;;;;;;2.25;1.15;;;;;;;;;;4909966;29;20034;-83
2024/03/11 02:27:02;;;;;;;1.50;1.30;;;;;;;;;;4895919;29;20115;-83
2024/03/11 02:29:47;;;;;;;1.95;1.40;;;;;;;;;;4900292;29;20031;-83
2024/03/11 02:32:32;;;;;;;2.05;1.45;;;;;;;;;;4915478;29;20031;-81
2024/03/11 02:35:18;;;;;;;2.85;1.60;;;;;;;;;;4896609;29;20024;-81
2024/03/11 02:38:04;;;;;;;1.80;1.70;;;;;;;;;;4909399;29;20087;-81
2024/03/11 02:40:50;;;;;;;2.05;1.33;;;;;;;;;;4895822;29;20144;-81
2024/03/11 02:43:36;;;;;;;1.92;1.05;;;;;;;;;;4896026;29;20031;-81
2024/03/11 02:46:22;;;;;;;3.45;1.52;;;;;;;;;;4907660;29;20059;-81
2024/03/11 02:49:07;;;;;;;7.00;1.42;;;;;;;;;;4909985;29;20106;-80
2024/03/11 02:51:52;;;;;;;1.25;1.15;;;;;;;;;;4896245;29;20782;-80
2024/03/11 02:54:38;;;;;;;3.53;1.38;;;;;;;;;;4898882;29;20032;-81
2024/03/11 02:57:23;;;;;;;2.50;1.42;;;;;;;;;;4896246;29;20048;-81
2024/03/11 03:00:11;;;;;;;1.50;1.10;;;;;;;;;;4893879;29;20043;-81
2024/03/11 03:02:58;;;;;;;1.60;1.13;;;;;;;;;;4911711;29;20029;-82
2024/03/11 03:05:43;;;;;;;1.90;1.20;;;;;;;;;;4912366;29;20036;-83
2024/03/11 03:08:28;;;;;;;1.70;1.13;;;;;;;;;;4898767;29;20117;-81
2024/03/11 03:11:13;;;;;;;1.60;1.10;;;;;;;;;;4913205;29;20032;-82
2024/03/11 03:13:59;;;;;;;3.65;1.30;;;;;;;;;;4899003;29;20016;-81
2024/03/11 03:16:44;;;;;;;1.90;1.20;;;;;;;;;;4898119;29;20028;-83
2024/03/11 03:19:29;;;;;;;1.35;1.08;;;;;;;;;;4898345;29;20115;-82
2024/03/11 03:22:14;;;;;;;1.33;1.00;;;;;;;;;;4912649;29;20028;-81
2024/03/11 03:25:00;;;;;;;1.05;0.98;;;;;;;;;;4898643;29;20024;-82
2024/03/11 03:27:46;;;;;;;1.10;1.00;;;;;;;;;;4898955;29;20036;-82
2024/03/11 03:30:32;;;;;;;2.22;1.48;;;;;;;;;;4898755;29;20550;-81
2024/03/11 03:33:18;;;;;;;2.28;0.80;;;;;;;;;;4897565;29;20051;-81
2024/03/11 03:36:04;;;;;;;1.58;1.00;;;;;;;;;;4893994;29;20035;-81
2024/03/11 03:38:49;;;;;;;1.20;1.10;;;;;;;;;;4885884;29;20043;-81
2024/03/11 03:41:35;;;;;;;2.53;1.30;;;;;;;;;;4913219;29;20503;-81
2024/03/11 03:44:20;;;;;;;2.03;1.83;;;;;;;;;;4899300;29;20079;-82
2024/03/11 03:47:05;;;;;;;2.58;1.13;;;;;;;;;;4913395;29;20180;-82
2024/03/11 03:49:51;;;;;;;3.47;1.45;;;;;;;;;;4899231;29;20107;-81
2024/03/11 03:52:38;;;;;;;2.47;1.30;;;;;;;;;;4901122;29;20035;-81
2024/03/11 03:55:24;;;;;;;3.28;1.48;;;;;;;;;;4901302;29;20024;-81
2024/03/11 03:58:09;;;;;;;1.35;1.10;;;;;;;;;;4908915;29;20036;-81
2024/03/11 04:00:56;;;;;;;1.23;1.13;;;;;;;;;;4918689;29;20055;-81
2024/03/11 04:03:42;;;;;;;2.58;1.52;;;;;;;;;;4913437;29;20488;-82
2024/03/11 04:06:28;;;;;;;1.10;1.00;;;;;;;;;;4924031;29;20016;-80
2024/03/11 04:09:14;;;;;;;4.65;1.20;;;;;;;;;;4909019;29;20424;-81
2024/03/11 04:11:59;;;;;;;3.92;1.30;;;;;;;;;;4902347;29;20530;-81
2024/03/11 04:14:44;;;;;;;3.17;1.33;;;;;;;;;;4907837;29;20025;-81
2024/03/11 04:17:32;;;;;;;3.45;1.23;;;;;;;;;;4894591;29;20029;-79
2024/03/11 04:20:22;;;;;;;1.92;1.10;;;;;;;;;;4910666;29;20403;-79
2024/03/11 04:23:08;;;;;;;1.10;1.00;;;;;;;;;;4901004;29;20040;-82
2024/03/11 04:25:53;;;;;;;3.13;1.42;;;;;;;;;;4914265;29;20032;-80
2024/03/11 04:28:38;;;;;;;1.08;0.98;;;;;;;;;;4896989;29;20091;-82
2024/03/11 04:31:24;;;;;;;1.92;1.10;;;;;;;;;;4898323;29;20075;-82
2024/03/11 04:34:10;;;;;;;1.55;1.30;;;;;;;;;;4911634;29;20071;-81
2024/03/11 04:36:56;;;;;;;2.80;1.30;;;;;;;;;;4885508;29;20055;-82
2024/03/11 04:39:42;;;;;;;0.95;0.93;;;;;;;;;;4912001;29;20143;-82
2024/03/11 04:42:27;;;;;;;1.42;1.33;;;;;;;;;;4880758;29;20558;-81
2024/03/11 04:45:12;;;;;;;1.23;1.05;;;;;;;;;;4898694;29;20063;-82
2024/03/11 04:47:59;;;;;;;2.63;1.77;;;;;;;;;;4896501;29;20759;-79
2024/03/11 04:50:44;;;;;;;2.55;1.48;;;;;;;;;;4898724;29;20020;-81
2024/03/11 04:53:30;;;;;;;1.20;1.10;;;;;;;;;;4898064;29;20494;-81
2024/03/11 04:56:15;;;;;;;1.48;1.02;;;;;;;;;;4898333;29;20060;-80
2024/03/11 04:59:00;;;;;;;3.75;1.67;;;;;;;;;;4897814;29;20024;-81
2024/03/11 05:01:48;;;;;;;1.88;1.35;;;;;;;;;;4917208;29;20027;-80
2024/03/11 05:04:34;;;;;;;3.92;2.08;;;;;;;;;;4898185;29;20032;-80
2024/03/11 05:07:20;;;;;;;3.38;1.73;;;;;;;;;;4897910;29;20074;-80
2024/03/11 05:10:07;;;;;;;5.05;2.20;;;;;;;;;;4911276;29;20028;-80
2024/03/11 05:12:52;;;;;;;5.65;2.40;;;;;;;;;;4898211;29;20526;-81
2024/03/11 05:15:38;;;;;;;4.22;2.13;;;;;;;;;;4912112;29;20080;-81
2024/03/11 05:18:23;;;;;;;3.22;1.70;;;;;;;;;;4898511;29;20066;-81
2024/03/11 05:21:09;;;;;;;2.17;1.65;;;;;;;;;;4891887;29;20043;-81
2024/03/11 05:23:54;;;;;;;1.30;1.20;;;;;;;;;;4898139;29;20138;-82
2024/03/11 05:26:39;;;;;;;4.50;1.70;;;;;;;;;;4898496;29;20035;-84
2024/03/11 05:29:25;;;;;;;2.85;1.38;;;;;;;;;;4897845;29;20089;-83
2024/03/11 05:32:10;;;;;;;2.40;1.80;;;;;;;;;;4898786;29;20364;-81
2024/03/11 05:34:55;;;;;;;2.00;1.60;;;;;;;;;;4915403;29;20047;-82
2024/03/11 05:37:41;;;;;;;4.45;1.88;;;;;;;;;;4917069;29;20110;-81
2024/03/11 05:40:26;;;;;;;2.45;1.75;;;;;;;;;;4902146;29;20112;-83
2024/03/11 05:43:12;;;;;;;2.00;1.38;;;;;;;;;;4898337;29;20039;-81
2024/03/11 05:45:57;;;;;;;3.10;1.60;;;;;;;;;;4898022;29;20451;-81
2024/03/11 05:48:43;;;;;;;2.50;1.40;;;;;;;;;;4897137;29;20032;-83
2024/03/11 05:51:28;;;;;;;2.13;1.60;;;;;;;;;;4896185;29;20412;-81
2024/03/11 05:54:17;;;;;;;3.83;1.80;;;;;;;;;;4886761;29;20028;-82
2024/03/11 05:57:04;;;;;;;2.78;1.80;;;;;;;;;;4896378;29;20036;-81
2024/03/11 05:59:50;;;;;;;2.45;1.67;;;;;;;;;;4896273;29;20028;-84
2024/03/11 06:02:36;;;;;;;2.00;1.50;;;;;;;;;;4897228;29;20384;-81
2024/03/11 06:05:21;;;;;;;2.13;1.60;;;;;;;;;;4897758;29;20096;-81
2024/03/11 06:08:07;;;;;;;3.13;1.58;;;;;;;;;;4895371;29;20551;-82
2024/03/11 06:10:54;;;;;;;2.17;1.52;;;;;;;;;;4909547;29;20032;-82
2024/03/11 06:13:39;;;;;;;4.30;1.50;;;;;;;;;;4896891;29;20036;-83
2024/03/11 06:16:24;;;;;;;3.92;1.55;;;;;;;;;;4912050;29;20036;-87
2024/03/11 06:19:12;;;;;;;2.22;1.40;;;;;;;;;;4896905;29;20031;-80
2024/03/11 06:21:57;;;;;;;3.63;1.55;;;;;;;;;;4910953;29;20028;-81
2024/03/11 06:24:43;;;;;;;4.72;1.60;;;;;;;;;;4909326;29;20032;-80
2024/03/11 06:27:28;;;;;;;2.53;1.50;;;;;;;;;;4918451;29;20383;-80
2024/03/11 06:30:13;;;;;;;3.50;1.80;;;;;;;;;;4906084;29;20031;-81
2024/03/11 06:32:59;;;;;;;5.00;1.63;;;;;;;;;;4900077;29;20098;-81
2024/03/11 06:35:45;;;;;;;3.50;1.98;;;;;;;;;;4896178;29;20028;-81
2024/03/11 06:38:30;;;;;;;3.00;1.70;;;;;;;;;;4893819;29;20028;-82
2024/03/11 06:41:15;;;;;;;4.55;1.70;;;;;;;;;;4909354;29;20142;-81
2024/03/11 06:44:02;;;;;;;5.25;2.10;;;;;;;;;;4894167;29;20036;-83
2024/03/11 06:46:47;;;;;;;3.72;1.65;;;;;;;;;;4905109;29;20040;-88
2024/03/11 06:49:32;;;;;;;3.08;1.88;;;;;;;;;;4896390;29;20036;-86
2024/03/11 06:52:18;;;;;;;5.65;2.00;;;;;;;;;;4894350;29;20031;-83
2024/03/11 06:55:10;;;;;;;3.40;1.70;;;;;;;;;;4895902;29;20067;-84
2024/03/11 06:57:55;;;;;;;3.00;1.70;;;;;;;;;;4910042;29;20131;-84
2024/03/11 07:00:40;;;;;;;4.60;1.92;;;;;;;;;;4895454;29;20051;-85
2024/03/11 07:03:32;;;;;;;3.70;1.70;;;;;;;;;;4894798;29;20316;-82
2024/03/11 07:06:17;;;;;;;3.03;1.88;;;;;;;;;;4894295;29;20067;-82
2024/03/11 07:09:02;;;;;;;3.58;1.67;;;;;;;;;;4886925;29;20040;-83
2024/03/11 07:11:50;;;;;;;4.50;2.20;;;;;;;;;;4897326;29;20122;-81
2024/03/11 07:14:37;;;;;;;1.70;1.45;;;;;;;;;;4893151;29;20042;-80
2024/03/11 07:17:26;;;;;;;4.18;1.77;;;;;;;;;;4894241;29;20071;-80
2024/03/11 07:20:13;;;;;;;2.63;1.57;;;;;;;;;;4892882;29;20064;-80
2024/03/11 07:22:58;;;;;;;2.47;1.40;;;;;;;;;;4909677;29;20260;-80
2024/03/11 07:25:43;;;;;;;2.75;1.65;;;;;;;;;;4908521;29;20032;-80
2024/03/11 07:28:29;;;;;;;2.00;1.45;;;;;;;;;;4907356;29;20485;-80
2024/03/11 07:31:16;;;;;;;4.07;1.63;;;;;;;;;;4890756;29;20127;-80
2024/03/11 07:34:01;;;;;;;2.33;1.40;;;;;;;;;;4888706;29;20044;-80
2024/03/11 07:36:46;;;;;;;2.75;1.10;;;;;;;;;;4894320;29;20060;-80
2024/03/11 07:39:31;;;;;;;4.43;1.55;;;;;;;;;;4892039;29;20032;-80
2024/03/11 07:42:17;;;;;;;1.65;1.27;;;;;;;;;;4892279;29;20460;-81
2024/03/11 07:45:03;;;;;;;1.92;1.20;;;;;;;;;;4888905;29;20080;-81
2024/03/11 07:47:48;;;;;;;2.83;1.65;;;;;;;;;;4896835;29;20036;-82
2024/03/11 07:50:33;;;;;;;4.82;2.08;;;;;;;;;;4900881;29;20031;-80
2024/03/11 07:53:19;;;;;;;3.08;1.27;;;;;;;;;;4895200;29;20107;-90
2024/03/11 07:56:04;;;;;;;3.65;1.27;;;;;;;;;;4902903;29;20036;-78
2024/03/11 07:59:04;;;;;;;1.65;1.17;;;;;;;;;;4906438;29;20036;-85
2024/03/11 08:01:54;;;;;;;1.65;1.17;;;;;;;;;;4911479;29;20535;-87
2024/03/11 08:07:53;;;;;;;3.08;1.23;;;;;;;;;;4912947;29;20075;-85
2024/03/11 08:10:38;;;;;;;2.00;1.52;;;;;;;;;;4912209;29;20407;-81
2024/03/11 08:13:23;;;;;;;2.10;1.30;;;;;;;;;;4899925;29;20032;-81
2024/03/11 08:16:11;;;;;;;3.40;1.05;;;;;;;;;;4893404;29;20024;-83
2024/03/11 08:18:57;;;;;;;1.63;1.00;;;;;;;;;;4898070;29;20080;-81
2024/03/11 08:21:43;;;;;;;2.88;1.05;;;;;;;;;;4912260;29;20032;-83
2024/03/11 08:24:28;;;;;;;1.15;1.00;;;;;;;;;;4917516;29;20011;-83
2024/03/11 08:27:15;;;;;;;1.10;1.00;;;;;;;;;;4930841;29;20035;-83
2024/03/11 08:30:01;;;;;;;3.15;1.15;;;;;;;;;;4915739;29;20107;-83
2024/03/11 08:32:56;;;;;;;1.70;1.10;;;;;;;;;;4913497;29;20590;-84
2024/03/11 08:35:41;;;;;;;2.03;1.10;;;;;;;;;;4933153;29;20031;-80
2024/03/11 08:38:29;;;;;;;1.77;1.25;;;;;;;;;;4936446;29;20043;-88
2024/03/11 08:41:14;;;;;;;1.10;1.00;;;;;;;;;;4912836;29;20032;-89
2024/03/11 08:43:59;;;;;;;3.45;1.67;;;;;;;;;;4896223;29;20056;-77
2024/03/11 08:46:44;;;;;;;2.50;1.20;;;;;;;;;;4898662;29;20690;-78
2024/03/11 08:49:33;;;;;;;1.70;1.08;;;;;;;;;;4898764;29;20032;-76
2024/03/11 08:52:18;;;;;;;2.55;1.40;;;;;;;;;;4902532;29;20066;-77
2024/03/11 08:55:06;;;;;;;1.73;0.90;;;;;;;;;;4895102;29;20511;-83
2024/03/11 08:57:57;;;;;;;1.77;0.90;;;;;;;;;;4898156;29;20317;-85
2024/03/11 09:00:51;;;;;;;2.17;1.30;;;;;;;;;;4913155;29;20405;-83
2024/03/11 09:03:37;;;;;;;1.30;1.00;;;;;;;;;;4897430;29;20024;-83
2024/03/11 09:06:23;;;;;;;1.25;1.00;;;;;;;;;;4897102;29;20040;-82
2024/03/11 09:09:09;;;;;;;2.45;1.15;;;;;;;;;;4879157;29;20108;-82
2024/03/11 09:11:57;;;;;;;1.90;1.02;;;;;;;;;;4882503;29;20047;-83
2024/03/11 09:14:42;;;;;;;1.00;0.70;;;;;;;;;;4898527;29;20036;-82
2024/03/11 09:17:27;;;;;;;4.22;0.90;;;;;;;;;;4899036;29;20031;-84
2024/03/11 09:20:15;;;;;;;1.63;0.73;;;;;;;;;;4898972;29;20044;-83
2024/03/11 09:23:02;;;;;;;1.25;0.80;;;;;;;;;;4898014;29;20032;-84
2024/03/11 09:25:47;;;;;;;0.75;0.73;;;;;;;;;;4879616;29;20033;-83
2024/03/11 09:28:32;;;;;;;2.35;1.23;;;;;;;;;;4903882;29;20604;-84
2024/03/11 09:31:17;;;;;;;1.40;0.90;;;;;;;;;;4902983;29;20020;-84
2024/03/11 09:34:03;;;;;;;1.70;0.80;;;;;;;;;;4899834;29;20055;-85
2024/03/11 09:36:48;;;;;;;0.90;0.70;;;;;;;;;;4897489;29;20083;-84
2024/03/11 09:39:34;;;;;;;1.40;0.70;;;;;;;;;;4912161;29;20535;-83
2024/03/11 09:42:23;;;;;;;1.00;0.80;;;;;;;;;;4896932;29;20032;-82
2024/03/11 09:45:10;;;;;;;0.65;0.60;;;;;;;;;;4896948;29;20514;-84
2024/03/11 09:48:00;;;;;;;1.00;0.70;;;;;;;;;;4910348;29;20067;-84
2024/03/11 09:50:47;;;;;;;1.02;0.80;;;;;;;;;;4884129;29;20031;-84
2024/03/11 09:53:33;;;;;;;3.10;1.45;;;;;;;;;;4897870;29;20094;-83
2024/03/11 09:56:20;;;;;;;3.50;1.05;;;;;;;;;;4909623;29;20024;-83
2024/03/11 09:59:09;;;;;;;0.75;0.70;;;;;;;;;;4896948;29;20541;-83
2024/03/11 10:01:56;;;;;;;1.80;0.80;;;;;;;;;;4897197;29;20083;-83
2024/03/11 10:04:41;;;;;;;1.48;1.05;;;;;;;;;;4897192;29;20024;-84
2024/03/11 10:07:26;;;;;;;2.22;1.20;;;;;;;;;;4897181;29;20024;-84
2024/03/11 10:10:12;;;;;;;1.30;1.00;;;;;;;;;;4896940;29;20862;-84
2024/03/11 10:13:04;;;;;;;2.72;1.38;;;;;;;;;;4896335;29;20028;-84
2024/03/11 10:15:50;;;;;;;2.33;1.08;;;;;;;;;;4911107;29;20100;-85
2024/03/11 10:18:36;;;;;;;2.85;0.80;;;;;;;;;;4909575;29;20036;-83
2024/03/11 10:21:21;;;;;;;1.83;0.88;;;;;;;;;;4910643;29;20306;-84
2024/03/11 10:24:08;;;;;;;1.45;1.00;;;;;;;;;;4891173;29;20074;-83
2024/03/11 10:26:54;;;;;;;1.95;1.08;;;;;;;;;;4910914;29;20036;-81
2024/03/11 10:29:41;;;;;;;13.60;1.00;;;;;;;;;;4896456;29;20067;-84
2024/03/11 10:32:41;;;;;;;1.42;0.90;;;;;;;;;;4910246;29;20050;-83
2024/03/11 10:35:28;;;;;;;0.95;0.73;;;;;;;;;;4883827;29;20035;-85
2024/03/11 10:38:13;;;;;;;2.85;0.90;;;;;;;;;;4898787;29;20032;-84
2024/03/11 10:41:16;;;;;;;1.35;0.90;;;;;;;;;;4897089;29;20658;-84
2024/03/11 10:44:11;;;;;;;1.42;0.85;;;;;;;;;;4896234;29;20040;-82
2024/03/11 10:47:06;;;;;;;2.40;0.80;;;;;;;;;;4896482;29;20040;-84
2024/03/11 10:49:53;;;;;;;0.70;0.70;;;;;;;;;;4881693;29;20028;-85
2024/03/11 10:52:43;;;;;;;1.05;0.95;;;;;;;;;;4894712;29;20028;-85
2024/03/11 10:55:34;;;;;;;;;;;;;;;;;;4896772;29;20147;-84
2024/03/11 10:58:21;;;;;;;1.20;0.88;;;;;;;;;;4894520;29;19922;-85
2024/03/11 11:01:06;;;;;;;0.98;0.80;;;;;;;;;;4894821;29;20028;-84
2024/03/11 11:03:54;;;;;;;1.60;1.08;;;;;;;;;;4896435;29;20379;-84
2024/03/11 11:06:46;;;;;;;1.45;0.70;;;;;;;;;;4895611;29;20067;-84
2024/03/11 11:09:34;;;;;;;3.63;0.90;;;;;;;;;;4882912;29;20108;-84
2024/03/11 11:12:22;;;;;;;1.50;0.98;;;;;;;;;;4896320;29;20028;-84
2024/03/11 11:15:07;;;;;;;1.27;1.10;;;;;;;;;;4928285;29;20042;-84
2024/03/11 11:17:54;;;;;;;1.25;0.80;;;;;;;;;;4915030;29;20050;-85
2024/03/11 11:20:42;;;;;;;1.02;0.80;;;;;;;;;;4928217;29;20039;-84
2024/03/11 11:23:28;;;;;;;0.88;0.80;;;;;;;;;;4909151;29;20032;-84
2024/03/11 11:26:33;;;;;;;2.65;0.90;;;;;;;;;;4895525;29;20407;-85
2024/03/11 11:29:24;;;;;;;1.25;0.80;;;;;;;;;;4909307;29;20048;-85
2024/03/11 11:32:11;;;;;;;0.63;0.60;;;;;;;;;;4896762;29;20114;-85
2024/03/11 11:34:56;;;;;;;1.00;0.93;;;;;;;;;;4913799;29;20056;-85
2024/03/11 11:37:42;;;;;;;0.82;0.70;;;;;;;;;;4899543;29;21000;-85
2024/03/11 11:40:31;;;;;;;0.85;0.82;;;;;;;;;;4899832;29;20020;-86
2024/03/11 11:43:20;;;;;;;1.58;0.90;;;;;;;;;;4913433;29;20024;-86
2024/03/11 11:46:09;;;;;;;0.98;0.70;;;;;;;;;;4886236;29;20042;-85
2024/03/11 11:49:14;;;;;;;1.25;1.02;;;;;;;;;;4913901;29;20174;-87
2024/03/11 11:51:59;;;;;;;0.80;0.70;;;;;;;;;;4899344;29;20029;-85
2024/03/11 11:54:46;;;;;;;1.50;0.75;;;;;;;;;;4899524;29;20031;-85
2024/03/11 11:57:32;;;;;;;1.27;0.65;;;;;;;;;;4899906;29;20042;-86
2024/03/11 12:00:17;;;;;;;0.73;0.73;;;;;;;;;;4900265;29;20042;-85
2024/03/11 12:03:04;;;;;;;2.45;0.70;;;;;;;;;;4900203;29;20044;-86
2024/03/11 12:06:11;;;;;;;1.65;0.98;;;;;;;;;;4899276;29;20415;-84
2024/03/11 12:09:05;;;;;;;1.05;0.73;;;;;;;;;;4912899;29;20234;-85
2024/03/11 12:11:57;;;;;;;4.05;0.98;;;;;;;;;;4912493;29;20020;-85
2024/03/11 12:14:51;;;;;;;1.00;0.70;;;;;;;;;;4904159;29;20480;-85
2024/03/11 12:17:36;;;;;;;2.22;0.90;;;;;;;;;;4899114;29;20118;-85
2024/03/11 12:20:25;;;;;;;0.80;0.80;;;;;;;;;;4899607;29;20502;-85
2024/03/11 12:23:10;;;;;;;2.47;1.00;;;;;;;;;;4899490;29;20024;-85
2024/03/11 12:25:56;;;;;;;0.63;0.60;;;;;;;;;;4899258;29;20063;-84
2024/03/11 12:29:22;;;;;;;1.05;0.70;;;;;;;;;;4899041;29;20040;-84
2024/03/11 12:32:16;;;;;;;2.15;0.90;;;;;;;;;;4841129;29;20033;-84
2024/03/11 12:35:04;;;;;;;1.00;0.80;;;;;;;;;;4840876;29;20037;-84
2024/03/11 12:37:49;;;;;;;1.50;0.88;;;;;;;;;;4896867;29;20079;-84
2024/03/11 12:40:34;;;;;;;1.73;0.85;;;;;;;;;;4912585;29;20024;-84
2024/03/11 12:43:20;;;;;;;2.80;0.70;;;;;;;;;;4898239;29;20878;-84
2024/03/11 12:46:05;;;;;;;0.70;0.60;;;;;;;;;;4912220;29;20443;-84
2024/03/11 12:48:51;;;;;;;0.90;0.73;;;;;;;;;;4897972;29;20154;-84
2024/03/11 12:51:36;;;;;;;1.02;0.73;;;;;;;;;;4897728;29;20491;-84
2024/03/11 12:54:22;;;;;;;1.35;0.70;;;;;;;;;;4897842;29;20668;-85
2024/03/11 12:57:11;;;;;;;0.90;0.70;;;;;;;;;;4897993;29;20067;-83
2024/03/11 12:59:57;;;;;;;1.15;0.80;;;;;;;;;;4898935;29;20036;-83
2024/03/11 13:02:43;;;;;;;1.75;0.70;;;;;;;;;;4898847;29;20036;-84
2024/03/11 13:05:30;;;;;;;1.30;0.70;;;;;;;;;;4910775;29;20072;-85
2024/03/11 13:08:17;;;;;;;1.08;0.77;;;;;;;;;;4911796;29;20028;-85
2024/03/11 13:11:10;;;;;;;2.97;0.80;;;;;;;;;;4911453;29;20031;-85
2024/03/11 13:13:56;;;;;;;0.70;0.70;;;;;;;;;;4898098;29;20428;-84
2024/03/11 13:16:43;;;;;;;1.13;0.70;;;;;;;;;;4896498;29;20036;-85
2024/03/11 13:19:31;;;;;;;1.10;0.60;;;;;;;;;;4912275;29;20452;-84
2024/03/11 13:22:20;;;;;;;1.23;0.80;;;;;;;;;;4897932;29;20428;-82
2024/03/11 13:25:05;;;;;;;0.67;0.60;;;;;;;;;;4897375;29;20020;-85
2024/03/11 13:27:51;;;;;;;0.60;0.60;;;;;;;;;;4897088;29;20295;-86
2024/03/11 13:30:39;;;;;;;2.08;0.88;;;;;;;;;;4897707;29;20030;-86
2024/03/11 13:33:30;;;;;;;0.68;0.68;;;;;;;;;;4897056;29;20143;-86
2024/03/11 13:36:15;;;;;;;0.70;0.70;;;;;;;;;;4884287;29;20501;-85
2024/03/11 13:39:01;;;;;;;0.60;0.60;;;;;;;;;;4912035;29;20038;-84
2024/03/11 13:41:47;;;;;;;0.70;0.60;;;;;;;;;;4911611;29;20055;-85
2024/03/11 13:44:33;;;;;;;0.93;0.77;;;;;;;;;;4911062;29;20066;-85
2024/03/11 13:47:18;;;;;;;0.95;0.70;;;;;;;;;;4910546;29;20040;-85
2024/03/11 13:50:09;;;;;;;0.70;0.70;;;;;;;;;;4897282;29;20043;-85
2024/03/11 13:52:59;;;;;;;2.05;1.15;;;;;;;;;;4911108;29;20020;-84
2024/03/11 13:55:49;;;;;;;0.60;0.60;;;;;;;;;;4896364;29;20028;-85
2024/03/11 13:58:35;;;;;;;1.75;0.65;;;;;;;;;;4897803;29;20160;-85
2024/03/11 14:01:24;;;;;;;0.73;0.60;;;;;;;;;;4926835;29;20031;-84
2024/03/11 14:04:11;;;;;;;0.90;0.75;;;;;;;;;;4910460;29;20039;-84
2024/03/11 14:06:56;;;;;;;1.02;0.70;;;;;;;;;;4897195;29;20047;-85
2024/03/11 14:09:41;;;;;;;0.60;0.60;;;;;;;;;;4897234;29;20032;-85
2024/03/11 14:12:26;;;;;;;0.95;0.90;;;;;;;;;;4896712;29;20474;-86
2024/03/11 14:15:13;;;;;;;2.00;0.80;;;;;;;;;;4896682;29;20040;-86
2024/03/11 14:17:58;;;;;;;4.60;0.95;;;;;;;;;;4909741;29;20497;-85
2024/03/11 14:20:43;;;;;;;0.55;0.55;;;;;;;;;;4910017;29;20506;-85
2024/03/11 14:23:29;;;;;;;0.77;0.75;;;;;;;;;;4910244;29;20606;-86
2024/03/11 14:26:14;;;;;;;2.60;0.60;;;;;;;;;;4909405;29;20085;-86
2024/03/11 14:28:59;;;;;;;0.63;0.63;;;;;;;;;;4908917;29;20032;-86
2024/03/11 14:31:45;;;;;;;0.60;0.60;;;;;;;;;;4909669;29;20387;-83
2024/03/11 14:34:30;;;;;;;1.48;0.80;;;;;;;;;;4895997;29;20056;-82
2024/03/11 14:37:17;;;;;;;1.98;0.90;;;;;;;;;;4896121;29;20035;-82
2024/03/11 14:40:03;;;;;;;2.17;0.60;;;;;;;;;;4877223;29;20033;-83
2024/03/11 14:42:48;;;;;;;1.05;0.70;;;;;;;;;;4890614;29;20044;-84
2024/03/11 14:45:33;;;;;;;0.63;0.63;;;;;;;;;;4891358;29;20032;-84
2024/03/11 14:48:20;;;;;;;1.20;0.75;;;;;;;;;;4891103;29;20108;-84
2024/03/11 14:51:05;;;;;;;0.98;0.60;;;;;;;;;;4890632;29;20035;-83
2024/03/11 14:53:53;;;;;;;1.05;0.93;;;;;;;;;;4896064;29;20020;-84
2024/03/11 14:56:40;;;;;;;1.10;0.90;;;;;;;;;;4910932;29;20020;-83
2024/03/11 14:59:26;;;;;;;0.80;0.80;;;;;;;;;;4907999;29;20088;-85
2024/03/11 15:02:15;;;;;;;1.35;0.77;;;;;;;;;;4895288;29;20334;-85
2024/03/11 15:05:00;;;;;;;;;;;;;;;;;;4896658;29;20647;-85
2024/03/11 15:07:46;;;;;;;0.75;0.75;;;;;;;;;;4895474;29;19916;-84
2024/03/11 15:10:34;;;;;;;1.58;0.90;;;;;;;;;;4896827;29;20039;-84
2024/03/11 15:13:22;;;;;;;0.98;0.73;;;;;;;;;;4895542;29;20108;-84
2024/03/11 15:16:08;;;;;;;4.20;1.00;;;;;;;;;;4895635;29;20111;-84
2024/03/11 15:18:53;;;;;;;1.58;0.93;;;;;;;;;;4895834;29;20108;-82
2024/03/11 15:21:38;;;;;;;0.70;0.70;;;;;;;;;;4895958;29;20036;-83
2024/03/11 15:24:24;;;;;;;1.13;0.82;;;;;;;;;;4895289;29;20025;-84
2024/03/11 15:27:09;;;;;;;1.70;0.90;;;;;;;;;;4908701;29;20453;-85
2024/03/11 15:29:55;;;;;;;1.30;1.00;;;;;;;;;;4896364;29;20028;-86
2024/03/11 15:32:40;;;;;;;1.60;0.70;;;;;;;;;;4896210;29;20056;-86
2024/03/11 15:35:26;;;;;;;1.88;0.75;;;;;;;;;;4895940;29;20038;-84
2024/03/11 15:38:14;;;;;;;0.80;0.80;;;;;;;;;;4895281;29;20040;-83
2024/03/11 15:40:59;;;;;;;1.52;0.90;;;;;;;;;;4908884;29;20036;-84
2024/03/11 15:43:45;;;;;;;2.50;1.10;;;;;;;;;;4895082;29;20106;-84
2024/03/11 15:46:30;;;;;;;1.60;1.02;;;;;;;;;;4895345;29;20044;-83
2024/03/11 15:49:16;;;;;;;1.45;1.00;;;;;;;;;;4908337;29;20116;-83
2024/03/11 15:52:03;;;;;;;1.20;0.93;;;;;;;;;;4895574;29;20265;-84
2024/03/11 15:54:48;;;;;;;1.83;0.80;;;;;;;;;;4909250;29;20043;-83
2024/03/11 15:57:33;;;;;;;1.70;0.80;;;;;;;;;;4896135;29;20092;-83
2024/03/11 16:00:19;;;;;;;2.40;1.38;;;;;;;;;;4895753;29;20024;-83
2024/03/11 16:03:07;;;;;;;1.60;0.98;;;;;;;;;;4894923;29;20399;-83
2024/03/11 16:05:53;;;;;;;1.35;1.00;;;;;;;;;;4895497;29;20115;-83
2024/03/11 16:08:40;;;;;;;1.73;1.05;;;;;;;;;;4894913;29;20091;-83
2024/03/11 16:11:26;;;;;;;2.38;1.15;;;;;;;;;;4894967;29;20024;-83
2024/03/11 16:14:11;;;;;;;2.60;1.00;;;;;;;;;;4895747;29;20075;-83
2024/03/11 16:16:56;;;;;;;1.60;0.80;;;;;;;;;;4895024;29;20472;-84
2024/03/11 16:19:41;;;;;;;1.67;0.95;;;;;;;;;;4899050;29;20024;-84
2024/03/11 16:22:27;;;;;;;1.48;0.95;;;;;;;;;;4899039;29;20028;-84
2024/03/11 16:25:13;;;;;;;1.23;1.10;;;;;;;;;;4899307;29;20403;-84
2024/03/11 16:27:58;;;;;;;3.20;1.08;;;;;;;;;;4911495;29;20122;-83
2024/03/11 16:30:44;;;;;;;1.90;1.00;;;;;;;;;;4899199;29;20120;-83
2024/03/11 16:33:30;;;;;;;4.40;1.10;;;;;;;;;;4910059;29;20041;-84
2024/03/11 16:36:16;;;;;;;2.78;1.02;;;;;;;;;;4920426;29;20032;-83
2024/03/11 16:39:03;;;;;;;1.77;0.98;;;;;;;;;;4922608;29;20004;-84
2024/03/11 16:41:47;;;;;;;5.45;1.08;;;;;;;;;;4935014;29;20031;-84